createdAt,value
2024-05-09T00:00:44.639Z,10.91
2024-05-09T00:03:12.756Z,10.81
2024-05-09T00:05:41.808Z,10.75
2024-05-09T00:08:11.219Z,10.67
2024-05-09T00:10:40.701Z,10.59
2024-05-09T00:13:11.120Z,10.53
2024-05-09T00:15:39.511Z,10.48
2024-05-09T00:18:09.068Z,10.42
2024-05-09T00:20:40.162Z,10.33
2024-05-09T00:23:15.878Z,10.32
2024-05-09T00:25:44.811Z,10.24
2024-05-09T00:28:13.339Z,10.20
2024-05-09T00:30:41.517Z,10.17
2024-05-09T00:33:10.744Z,10.20
2024-05-09T00:35:39.903Z,10.11
2024-05-09T00:38:08.387Z,10.10
2024-05-09T00:40:42.356Z,10.07
2024-05-09T00:43:13.170Z,10.07
2024-05-09T00:45:42.719Z,10.07
2024-05-09T00:48:14.981Z,10.03
2024-05-09T00:50:46.667Z,10.02
2024-05-09T00:53:17.437Z,10.04
2024-05-09T00:55:46.861Z,10.03
2024-05-09T00:58:18.890Z,9.98
2024-05-09T01:00:47.158Z,10.00
2024-05-09T01:03:15.250Z,9.97
2024-05-09T01:05:44.697Z,9.96
2024-05-09T01:08:13.439Z,9.97
2024-05-09T01:10:44.839Z,9.95
2024-05-09T01:13:14.002Z,9.92
2024-05-09T01:15:42.401Z,9.88
2024-05-09T01:18:12.534Z,9.86
2024-05-09T01:20:44.340Z,9.82
2024-05-09T01:23:15.773Z,9.77
2024-05-09T01:25:46.196Z,9.73
2024-05-09T01:28:15.184Z,9.62
2024-05-09T01:30:43.365Z,9.51
2024-05-09T01:33:12.463Z,9.45
2024-05-09T01:35:42.505Z,9.35
2024-05-09T01:38:17.426Z,9.33
2024-05-09T01:40:47.005Z,9.31
2024-05-09T01:43:16.080Z,9.26
2024-05-09T01:45:43.865Z,9.22
2024-05-09T01:48:11.940Z,9.18
2024-05-09T01:50:42.503Z,9.11
2024-05-09T01:53:14.248Z,9.08
2024-05-09T01:55:43.433Z,9.01
2024-05-09T01:58:11.444Z,8.94
2024-05-09T02:00:42.435Z,8.86
2024-05-09T02:03:15.761Z,8.77
2024-05-09T02:05:47.533Z,8.67
2024-05-09T02:08:21.114Z,8.63
2024-05-09T02:10:50.391Z,8.68
2024-05-09T02:13:18.843Z,8.71
2024-05-09T02:15:46.800Z,8.75
2024-05-09T02:18:14.708Z,8.80
2024-05-09T02:20:43.427Z,8.83
2024-05-09T02:23:12.258Z,8.82
2024-05-09T02:25:43.819Z,8.83
2024-05-09T02:28:11.661Z,8.84
2024-05-09T02:30:41.605Z,8.81
2024-05-09T02:33:12.865Z,8.81
2024-05-09T02:35:43.770Z,8.76
2024-05-09T02:38:12.925Z,8.78
2024-05-09T02:40:41.360Z,8.82
2024-05-09T02:43:12.534Z,8.78
2024-05-09T02:45:41.675Z,8.78
2024-05-09T02:48:13.869Z,8.73
2024-05-09T02:50:44.356Z,8.69
2024-05-09T02:53:13.142Z,8.69
2024-05-09T02:55:42.408Z,8.69
2024-05-09T02:58:11.010Z,8.62
2024-05-09T03:00:41.679Z,8.50
2024-05-09T03:03:13.719Z,8.42
2024-05-09T03:05:44.829Z,8.34
2024-05-09T03:08:13.332Z,8.31
2024-05-09T03:10:41.249Z,8.30
2024-05-09T03:13:15.495Z,8.36
2024-05-09T03:15:45.105Z,8.35
2024-05-09T03:18:13.735Z,8.31
2024-05-09T03:20:44.098Z,8.30
2024-05-09T03:23:12.570Z,8.31
2024-05-09T03:25:40.653Z,8.33
2024-05-09T03:28:08.484Z,8.27
2024-05-09T03:30:41.325Z,8.32
2024-05-09T03:33:19.205Z,8.35
2024-05-09T03:35:49.186Z,8.36
2024-05-09T03:38:17.597Z,8.38
2024-05-09T03:40:50.688Z,8.38
2024-05-09T03:43:20.027Z,8.44
2024-05-09T03:45:50.251Z,8.51
2024-05-09T03:48:18.316Z,8.56
2024-05-09T03:50:46.305Z,8.62
2024-05-09T03:53:15.000Z,8.69
2024-05-09T03:55:42.880Z,8.74
2024-05-09T03:58:13.058Z,8.78
2024-05-09T04:00:42.359Z,8.82
2024-05-09T04:03:12.219Z,8.82
2024-05-09T04:05:42.842Z,8.87
2024-05-09T04:08:15.693Z,8.88
2024-05-09T04:10:43.980Z,8.96
2024-05-09T04:13:11.892Z,8.96
2024-05-09T04:15:39.941Z,9.04
2024-05-09T04:18:08.056Z,9.06
2024-05-09T04:20:39.429Z,9.11
2024-05-09T04:23:14.207Z,9.18
2024-05-09T04:25:45.472Z,9.27
2024-05-09T04:28:14.397Z,9.32
2024-05-09T04:30:42.854Z,9.40
2024-05-09T04:33:13.506Z,9.45
2024-05-09T04:35:43.780Z,9.51
2024-05-09T04:38:13.955Z,9.55
2024-05-09T04:40:42.562Z,9.63
2024-05-09T04:43:19.544Z,9.69
2024-05-09T04:45:47.518Z,9.76
2024-05-09T04:48:16.601Z,9.77
2024-05-09T04:50:44.872Z,9.85
2024-05-09T04:53:16.439Z,9.94
2024-05-09T04:55:44.647Z,10.02
2024-05-09T04:58:12.592Z,10.03
2024-05-09T05:00:41.648Z,10.05
2024-05-09T05:03:14.297Z,10.10
2024-05-09T05:05:45.246Z,10.20
2024-05-09T05:08:19.010Z,10.31
2024-05-09T05:10:48.889Z,10.37
2024-05-09T05:13:20.643Z,10.41
2024-05-09T05:15:57.059Z,10.48
2024-05-09T05:18:29.148Z,10.53
2024-05-09T05:20:58.577Z,10.59
2024-05-09T05:23:26.563Z,10.69
2024-05-09T05:25:55.369Z,10.81
2024-05-09T05:28:23.831Z,10.86
2024-05-09T05:30:51.780Z,10.95
2024-05-09T05:33:20.044Z,11.01
2024-05-09T05:35:48.335Z,11.06
2024-05-09T05:38:16.221Z,11.11
2024-05-09T05:40:44.120Z,11.17
2024-05-09T05:43:18.914Z,11.23
2024-05-09T05:45:47.254Z,11.30
2024-05-09T05:48:17.125Z,11.38
2024-05-09T05:50:45.763Z,11.49
2024-05-09T05:53:14.015Z,11.60
2024-05-09T05:55:42.481Z,11.67
2024-05-09T05:58:11.762Z,11.74
2024-05-09T06:00:42.089Z,11.80
2024-05-09T06:03:13.444Z,11.86
2024-05-09T06:05:44.151Z,11.95
2024-05-09T06:08:12.709Z,11.94
2024-05-09T06:10:41.636Z,12.08
2024-05-09T06:13:11.569Z,12.00
2024-05-09T06:15:40.552Z,12.00
2024-05-09T06:18:10.737Z,12.11
2024-05-09T06:20:43.310Z,12.18
2024-05-09T06:23:13.191Z,12.23
2024-05-09T06:25:42.406Z,12.35
2024-05-09T06:28:11.231Z,12.45
2024-05-09T06:30:42.264Z,12.53
2024-05-09T06:33:14.165Z,12.56
2024-05-09T06:35:44.933Z,12.58
2024-05-09T06:38:13.114Z,12.56
2024-05-09T06:40:43.900Z,12.61
2024-05-09T06:43:13.892Z,12.65
2024-05-09T06:45:41.823Z,12.77
2024-05-09T06:48:10.532Z,12.90
2024-05-09T06:50:40.069Z,13.12
2024-05-09T06:53:09.394Z,13.38
2024-05-09T06:55:37.980Z,13.50
2024-05-09T06:58:07.784Z,13.61
2024-05-09T07:00:39.750Z,13.45
2024-05-09T07:03:16.895Z,13.45
2024-05-09T07:05:48.222Z,13.57
2024-05-09T07:08:18.234Z,13.59
2024-05-09T07:10:46.470Z,13.76
2024-05-09T07:13:15.522Z,13.87
2024-05-09T07:15:43.885Z,14.04
2024-05-09T07:18:17.717Z,14.04
2024-05-09T07:20:50.941Z,14.04
2024-05-09T07:23:19.221Z,14.14
2024-05-09T07:25:47.314Z,14.18
2024-05-09T07:28:18.248Z,14.26
2024-05-09T07:30:46.652Z,14.32
2024-05-09T07:33:20.831Z,14.40
2024-05-09T07:35:50.135Z,14.65
2024-05-09T07:38:18.020Z,14.77
2024-05-09T07:40:46.001Z,14.95
2024-05-09T07:43:14.728Z,15.13
2024-05-09T07:45:51.383Z,15.24
2024-05-09T07:52:38.513Z,15.17
2024-05-09T07:53:47.475Z,15.27
2024-05-09T07:56:21.623Z,15.40
2024-05-09T07:58:52.525Z,15.66
2024-05-09T08:01:21.067Z,15.92
2024-05-09T08:03:50.725Z,16.00
2024-05-09T08:06:19.118Z,16.22
2024-05-09T08:08:47.696Z,16.44
2024-05-09T08:11:15.869Z,16.36
2024-05-09T08:13:43.714Z,16.46
2024-05-09T08:16:13.693Z,16.54
2024-05-09T08:18:42.674Z,16.71
2024-05-09T08:21:10.507Z,16.49
2024-05-09T08:23:38.308Z,16.45
2024-05-09T08:26:06.228Z,16.80
2024-05-09T08:28:34.042Z,16.98
2024-05-09T08:31:06.014Z,16.99
2024-05-09T08:33:34.932Z,16.94
2024-05-09T08:36:02.908Z,16.75
2024-05-09T08:38:30.685Z,16.86
2024-05-09T08:40:58.437Z,16.74
2024-05-09T08:43:27.819Z,16.61
2024-05-09T08:45:59.450Z,16.59
2024-05-09T08:48:27.551Z,16.44
2024-05-09T08:50:59.372Z,16.34
2024-05-09T08:53:27.512Z,16.30
2024-05-09T08:55:58.460Z,16.34
2024-05-09T08:58:26.843Z,16.55
2024-05-09T09:00:55.367Z,16.73
2024-05-09T09:03:28.122Z,16.46
2024-05-09T09:06:09.507Z,16.25
2024-05-09T09:08:39.513Z,16.30
2024-05-09T09:11:07.416Z,16.46
2024-05-09T09:13:35.173Z,16.78
2024-05-09T09:16:03.738Z,17.37
2024-05-09T09:18:33.149Z,18.01
2024-05-09T09:21:03.014Z,18.42
2024-05-09T09:23:31.120Z,18.98
2024-05-09T09:26:00.268Z,19.40
2024-05-09T09:28:28.309Z,19.92
2024-05-09T09:31:03.360Z,20.04
2024-05-09T09:33:31.917Z,20.14
2024-05-09T09:36:03.163Z,20.20
2024-05-09T09:38:32.893Z,20.17
2024-05-09T09:41:06.977Z,20.52
2024-05-09T09:43:37.190Z,20.58
2024-05-09T09:46:08.801Z,20.47
2024-05-09T09:48:40.520Z,20.24
2024-05-09T09:51:08.854Z,19.85
2024-05-09T09:53:38.635Z,19.66
2024-05-09T09:56:10.445Z,19.67
2024-05-09T09:58:40.375Z,19.99
2024-05-09T10:01:08.325Z,20.27
2024-05-09T10:03:36.813Z,20.51
2024-05-09T10:06:06.912Z,20.52
2024-05-09T10:08:36.267Z,20.14
2024-05-09T10:11:04.646Z,19.93
2024-05-09T10:13:34.980Z,19.55
2024-05-09T10:16:12.063Z,19.03
2024-05-09T10:18:41.515Z,18.73
2024-05-09T10:21:20.338Z,18.66
2024-05-09T10:24:03.522Z,18.72
2024-05-09T10:26:36.950Z,18.72
2024-05-09T10:29:18.090Z,18.94
2024-05-09T10:31:48.077Z,19.04
2024-05-09T10:34:21.330Z,19.05
2024-05-09T10:36:56.493Z,19.29
2024-05-09T10:39:25.934Z,19.53
2024-05-09T10:41:53.807Z,19.65
2024-05-09T10:44:22.236Z,19.96
2024-05-09T10:46:50.742Z,20.23
2024-05-09T10:49:18.748Z,20.34
2024-05-09T10:51:48.476Z,20.35
2024-05-09T10:54:16.881Z,20.48
2024-05-09T10:56:44.811Z,20.66
2024-05-09T11:03:59.352Z,21.01
2024-05-09T11:06:28.902Z,20.96
2024-05-09T11:08:58.840Z,21.00
2024-05-09T11:11:27.552Z,21.44
2024-05-09T11:13:55.338Z,21.65
2024-05-09T11:16:23.358Z,22.22
2024-05-09T11:18:56.565Z,22.13
2024-05-09T11:21:25.265Z,22.09
2024-05-09T11:23:53.402Z,22.03
2024-05-09T11:26:22.352Z,22.24
2024-05-09T11:28:50.967Z,22.29
2024-05-09T11:31:19.172Z,22.25
2024-05-09T11:33:47.492Z,22.70
2024-05-09T11:36:16.115Z,22.75
2024-05-09T11:38:43.938Z,22.47
2024-05-09T11:41:18.600Z,21.98
2024-05-09T11:43:46.595Z,21.76
2024-05-09T11:46:14.701Z,22.23
2024-05-09T11:48:42.797Z,22.63
2024-05-09T11:51:10.683Z,23.19
2024-05-09T11:53:38.424Z,23.44
2024-05-09T11:56:06.518Z,23.45
2024-05-09T11:58:36.906Z,23.22
2024-05-09T12:01:05.089Z,23.50
2024-05-09T12:03:34.951Z,23.89
2024-05-09T12:06:03.663Z,24.19
2024-05-09T12:08:31.507Z,23.58
2024-05-09T12:10:59.612Z,23.54
2024-05-09T12:13:27.713Z,23.08
2024-05-09T12:15:55.591Z,23.39
2024-05-09T12:18:23.590Z,23.73
2024-05-09T12:20:51.341Z,23.71
2024-05-09T12:23:19.210Z,23.37
2024-05-09T12:25:47.057Z,23.16
2024-05-09T12:28:16.126Z,23.68
2024-05-09T12:30:43.975Z,23.57
2024-05-09T12:33:13.396Z,23.30
2024-05-09T12:35:44.457Z,22.63
2024-05-09T12:38:15.296Z,22.56
2024-05-09T12:40:43.700Z,22.79
2024-05-09T12:43:12.067Z,22.99
2024-05-09T12:45:40.568Z,23.33
2024-05-09T12:48:12.325Z,23.02
2024-05-09T12:50:42.001Z,22.81
2024-05-09T12:53:10.226Z,22.91
2024-05-09T12:55:45.009Z,22.71
2024-05-09T12:58:24.714Z,22.69
2024-05-09T13:00:53.025Z,22.48
2024-05-09T13:03:21.434Z,22.52
2024-05-09T13:05:52.585Z,22.33
2024-05-09T13:08:21.185Z,22.02
2024-05-09T13:10:50.463Z,21.32
2024-05-09T13:13:18.595Z,21.77
2024-05-09T13:15:46.439Z,22.29
2024-05-09T13:18:14.351Z,22.18
2024-05-09T13:20:42.173Z,21.60
2024-05-09T13:23:10.090Z,21.50
2024-05-09T13:25:38.439Z,21.65
2024-05-09T13:28:07.715Z,21.78
2024-05-09T13:30:40.536Z,22.22
2024-05-09T13:33:14.247Z,23.02
2024-05-09T13:35:47.211Z,23.77
2024-05-09T13:38:19.840Z,24.42
2024-05-09T13:40:49.047Z,24.73
2024-05-09T13:43:18.031Z,24.95
2024-05-09T13:45:46.639Z,24.74
2024-05-09T13:48:15.020Z,24.32
2024-05-09T13:50:42.973Z,24.85
2024-05-09T13:53:10.771Z,25.40
2024-05-09T13:55:39.508Z,25.50
2024-05-09T13:58:08.726Z,25.58
2024-05-09T14:00:46.653Z,25.76
2024-05-09T14:03:18.776Z,25.76
2024-05-09T14:05:50.534Z,26.09
2024-05-09T14:08:22.568Z,26.40
2024-05-09T14:10:53.851Z,26.44
2024-05-09T14:13:21.945Z,26.41
2024-05-09T14:15:51.510Z,26.53
2024-05-09T14:18:19.680Z,27.02
2024-05-09T14:20:47.974Z,27.92
2024-05-09T14:23:17.912Z,28.09
2024-05-09T14:25:49.036Z,28.23
2024-05-09T14:28:20.586Z,27.35
2024-05-09T14:30:48.952Z,26.97
2024-05-09T14:33:23.672Z,26.69
2024-05-09T14:35:54.115Z,26.18
2024-05-09T14:38:24.508Z,25.55
2024-05-09T14:40:54.646Z,24.70
2024-05-09T14:43:24.841Z,23.98
2024-05-09T14:45:53.648Z,23.22
2024-05-09T14:48:23.228Z,23.00
2024-05-09T14:50:52.584Z,23.34
2024-05-09T14:53:23.661Z,23.53
2024-05-09T14:55:53.010Z,23.72
2024-05-09T14:58:23.308Z,23.74
2024-05-09T15:00:52.798Z,23.60
2024-05-09T15:03:22.872Z,23.89
2024-05-09T15:05:52.618Z,23.90
2024-05-09T15:08:22.825Z,23.37
2024-05-09T15:10:51.014Z,22.98
2024-05-09T15:13:21.515Z,22.66
2024-05-09T15:15:52.105Z,22.77
2024-05-09T15:18:21.870Z,23.04
2024-05-09T15:20:51.456Z,23.48
2024-05-09T15:23:20.786Z,24.04
2024-05-09T15:25:50.201Z,23.95
2024-05-09T15:28:19.978Z,23.67
2024-05-09T15:30:48.285Z,23.63
2024-05-09T15:33:17.869Z,23.16
2024-05-09T15:35:47.030Z,22.84
2024-05-09T15:38:16.108Z,22.65
2024-05-09T15:40:44.237Z,22.98
2024-05-09T15:43:13.912Z,22.80
2024-05-09T15:45:43.181Z,22.54
2024-05-09T15:48:12.341Z,22.35
2024-05-09T15:50:42.696Z,22.44
2024-05-09T15:53:13.603Z,22.21
2024-05-09T15:55:43.771Z,22.08
2024-05-09T15:58:12.508Z,22.17
2024-05-09T16:00:44.029Z,21.96
2024-05-09T16:03:14.623Z,22.00
2024-05-09T16:05:46.563Z,21.81
2024-05-09T16:08:16.809Z,21.70
2024-05-09T16:10:47.133Z,21.76
2024-05-09T16:13:16.657Z,21.65
2024-05-09T16:15:46.943Z,21.66
2024-05-09T16:18:15.967Z,21.66
2024-05-09T16:20:47.469Z,21.44
2024-05-09T16:23:17.791Z,21.00
2024-05-09T16:25:48.026Z,21.13
2024-05-09T16:28:18.736Z,21.19
2024-05-09T16:30:47.721Z,21.07
2024-05-09T16:33:19.443Z,20.92
2024-05-09T16:35:47.570Z,20.96
2024-05-09T16:38:15.433Z,20.73
2024-05-09T16:40:44.245Z,20.62
2024-05-09T16:43:13.531Z,20.72
2024-05-09T16:45:44.680Z,20.75
2024-05-09T16:48:14.549Z,20.82
2024-05-09T16:50:43.711Z,20.86
2024-05-09T16:53:11.681Z,20.68
2024-05-09T16:55:39.651Z,20.68
2024-05-09T16:58:08.403Z,20.47
2024-05-09T17:00:41.473Z,20.38
2024-05-09T17:03:14.438Z,20.62
2024-05-09T17:05:46.618Z,20.59
2024-05-09T17:08:18.555Z,20.41
2024-05-09T17:10:50.504Z,20.18
2024-05-09T17:13:19.368Z,20.06
2024-05-09T17:15:48.484Z,20.18
2024-05-09T17:18:16.822Z,20.12
2024-05-09T17:20:44.749Z,20.00
2024-05-09T17:23:14.439Z,20.03
2024-05-09T17:25:43.983Z,20.06
2024-05-09T17:28:12.410Z,20.06
2024-05-09T17:30:42.156Z,20.00
2024-05-09T17:33:11.920Z,19.94
2024-05-09T17:35:42.264Z,19.85
2024-05-09T17:38:11.300Z,19.70
2024-05-09T17:40:39.688Z,19.66
2024-05-09T17:43:10.742Z,19.61
2024-05-09T17:45:40.865Z,19.82
2024-05-09T17:48:11.668Z,19.92
2024-05-09T17:50:42.179Z,19.86
2024-05-09T17:53:11.150Z,19.76
2024-05-09T17:55:40.907Z,19.87
2024-05-09T17:58:09.445Z,20.04
2024-05-09T18:00:41.614Z,20.58
2024-05-09T18:03:12.340Z,21.53
2024-05-09T18:05:42.017Z,22.43
2024-05-09T18:08:10.511Z,22.56
2024-05-09T18:10:41.398Z,21.91
2024-05-09T18:13:10.718Z,21.57
2024-05-09T18:15:40.491Z,21.49
2024-05-09T18:18:10.646Z,21.26
2024-05-09T18:20:44.223Z,20.66
2024-05-09T18:23:16.680Z,20.34
2024-05-09T18:25:46.523Z,20.11
2024-05-09T18:28:15.683Z,19.88
2024-05-09T18:30:43.866Z,19.55
2024-05-09T18:33:12.355Z,19.23
2024-05-09T18:35:44.112Z,18.97
2024-05-09T18:38:12.021Z,18.73
2024-05-09T18:40:41.994Z,18.56
2024-05-09T18:43:11.720Z,18.36
2024-05-09T18:45:40.113Z,18.22
2024-05-09T18:48:10.132Z,18.14
2024-05-09T18:50:40.633Z,18.02
2024-05-09T18:53:12.578Z,17.89
2024-05-09T18:55:42.799Z,17.77
2024-05-09T18:58:11.203Z,17.64
2024-05-09T19:00:41.654Z,17.50
2024-05-09T19:03:13.828Z,17.39
2024-05-09T19:05:45.036Z,17.21
2024-05-09T19:08:15.422Z,17.09
2024-05-09T19:10:45.771Z,16.97
2024-05-09T19:13:15.195Z,16.81
2024-05-09T19:15:44.358Z,16.74
2024-05-09T19:18:15.844Z,16.55
2024-05-09T19:20:44.435Z,16.27
2024-05-09T19:23:12.436Z,16.15
2024-05-09T19:25:40.511Z,16.03
2024-05-09T19:28:08.532Z,15.92
2024-05-09T19:30:40.771Z,15.83
2024-05-09T19:33:14.593Z,15.78
2024-05-09T19:35:43.871Z,15.68
2024-05-09T19:38:12.243Z,15.64
2024-05-09T19:40:40.250Z,15.54
2024-05-09T19:43:08.238Z,15.49
2024-05-09T19:45:36.691Z,15.43
2024-05-09T19:48:06.431Z,15.33
2024-05-09T19:50:41.525Z,15.26
2024-05-09T19:53:13.411Z,15.17
2024-05-09T19:55:42.290Z,15.05
2024-05-09T19:58:11.388Z,14.96
2024-05-09T20:00:42.313Z,14.95
2024-05-09T20:03:14.112Z,14.85
2024-05-09T20:05:46.885Z,14.82
2024-05-09T20:08:15.321Z,14.79
2024-05-09T20:10:43.377Z,14.71
2024-05-09T20:13:11.440Z,14.68
2024-05-09T20:15:40.029Z,14.67
2024-05-09T20:18:09.009Z,14.59
2024-05-09T20:20:40.917Z,14.49
2024-05-09T20:23:12.365Z,14.48
2024-05-09T20:25:41.348Z,14.45
2024-05-09T20:28:09.813Z,14.47
2024-05-09T20:30:37.952Z,14.43
2024-05-09T20:33:07.813Z,14.40
2024-05-09T20:35:36.944Z,14.31
2024-05-09T20:38:05.445Z,14.28
2024-05-09T20:40:37.397Z,14.26
2024-05-09T20:43:08.773Z,14.30
2024-05-09T20:45:36.932Z,14.21
2024-05-09T20:48:06.155Z,14.15
2024-05-09T20:50:39.285Z,14.00
2024-05-09T20:53:12.359Z,13.90
2024-05-09T20:55:41.410Z,13.85
2024-05-09T20:58:10.468Z,13.80
2024-05-09T21:00:42.317Z,13.74
2024-05-09T21:03:15.206Z,13.72
2024-05-09T21:05:44.527Z,13.69
2024-05-09T21:08:12.548Z,13.64
2024-05-09T21:10:40.429Z,13.64
2024-05-09T21:13:08.386Z,13.61
2024-05-09T21:15:36.632Z,13.56
2024-05-09T21:18:05.219Z,13.52
2024-05-09T21:20:35.144Z,13.49
2024-05-09T21:23:03.818Z,13.48
2024-05-09T21:25:32.306Z,13.44
2024-05-09T21:28:01.029Z,13.35
2024-05-09T21:30:38.503Z,13.22
2024-05-09T21:33:12.709Z,13.24
2024-05-09T21:35:43.565Z,13.22
2024-05-09T21:38:13.826Z,13.18
2024-05-09T21:40:42.907Z,13.17
2024-05-09T21:43:10.775Z,13.16
2024-05-09T21:45:38.705Z,13.19
2024-05-09T21:48:07.620Z,13.22
2024-05-09T21:50:40.030Z,13.20
2024-05-09T21:53:13.657Z,13.20
2024-05-09T21:55:46.151Z,13.16
2024-05-09T21:58:14.818Z,13.10
2024-05-09T22:00:45.628Z,13.11
2024-05-09T22:03:14.617Z,13.12
2024-05-09T22:05:44.782Z,13.11
2024-05-09T22:08:13.395Z,13.05
2024-05-09T22:10:41.292Z,12.96
2024-05-09T22:13:09.320Z,12.86
2024-05-09T22:15:39.920Z,12.79
2024-05-09T22:18:10.165Z,12.70
2024-05-09T22:20:46.681Z,12.70
2024-05-09T22:23:15.857Z,12.71
2024-05-09T22:25:43.879Z,12.68
2024-05-09T22:28:15.765Z,12.65
2024-05-09T22:30:46.100Z,12.60
2024-05-09T22:33:15.292Z,12.58
2024-05-09T22:35:43.196Z,12.56
2024-05-09T22:38:11.061Z,12.46
2024-05-09T22:40:46.949Z,12.41
2024-05-09T22:43:23.833Z,12.44
2024-05-09T22:45:56.710Z,12.41
2024-05-09T22:48:25.791Z,12.40
2024-05-09T22:50:54.752Z,12.37
2024-05-09T22:53:25.778Z,12.35
2024-05-09T22:55:54.186Z,12.29
2024-05-09T22:58:23.155Z,12.27
2024-05-09T23:00:51.360Z,12.21
2024-05-09T23:03:21.539Z,12.16
2024-05-09T23:05:49.729Z,12.10
2024-05-09T23:08:17.452Z,12.09
2024-05-09T23:10:45.282Z,12.11
2024-05-09T23:13:13.298Z,12.12
2024-05-09T23:15:41.249Z,12.09
2024-05-09T23:18:09.303Z,12.10
2024-05-09T23:20:39.469Z,12.01
2024-05-09T23:23:09.419Z,11.92
2024-05-09T23:25:38.108Z,11.86
2024-05-09T23:28:06.683Z,11.88
2024-05-09T23:30:38.750Z,11.90
2024-05-09T23:33:11.926Z,11.90
2024-05-09T23:35:42.511Z,11.87
2024-05-09T23:38:10.280Z,11.82
2024-05-09T23:40:40.516Z,11.83
2024-05-09T23:43:11.272Z,11.74
2024-05-09T23:45:40.185Z,11.71
2024-05-09T23:48:08.726Z,11.68
2024-05-09T23:50:38.686Z,11.63
2024-05-09T23:53:09.457Z,11.67
2024-05-09T23:55:38.476Z,11.62
2024-05-09T23:58:09.844Z,11.54
